sensor_id;sensor_type;location;lat;lon;timestamp;temperature;humidity
50758;DHT22;36732;47.980;11.652;2023-03-23T00:01:19;13.30;53.20
50758;DHT22;36732;47.980;11.652;2023-03-23T00:03:48;13.30;53.20
50758;DHT22;36732;47.980;11.652;2023-03-23T00:06:15;13.30;53.30
50758;DHT22;36732;47.980;11.652;2023-03-23T00:08:49;13.30;53.30
50758;DHT22;36732;47.980;11.652;2023-03-23T00:11:23;13.30;53.20
50758;DHT22;36732;47.980;11.652;2023-03-23T00:13:52;13.30;53.30
50758;DHT22;36732;47.980;11.652;2023-03-23T00:16:23;13.30;53.30
50758;DHT22;36732;47.980;11.652;2023-03-23T00:19:01;13.30;53.50
50758;DHT22;36732;47.980;11.652;2023-03-23T00:21:32;13.20;53.40
50758;DHT22;36732;47.980;11.652;2023-03-23T00:26:27;13.20;53.50
50758;DHT22;36732;47.980;11.652;2023-03-23T00:28:55;13.30;53.50
50758;DHT22;36732;47.980;11.652;2023-03-23T00:31:21;13.30;53.50
50758;DHT22;36732;47.980;11.652;2023-03-23T00:33:47;13.30;53.50
50758;DHT22;36732;47.980;11.652;2023-03-23T00:36:13;13.20;53.50
50758;DHT22;36732;47.980;11.652;2023-03-23T00:38:40;13.20;53.50
50758;DHT22;36732;47.980;11.652;2023-03-23T00:41:07;13.20;53.50
50758;DHT22;36732;47.980;11.652;2023-03-23T00:43:33;13.30;53.70
50758;DHT22;36732;47.980;11.652;2023-03-23T00:46:03;13.30;53.70
50758;DHT22;36732;47.980;11.652;2023-03-23T00:48:34;13.30;53.60
50758;DHT22;36732;47.980;11.652;2023-03-23T00:51:10;13.30;53.70
50758;DHT22;36732;47.980;11.652;2023-03-23T00:53:37;13.30;53.60
50758;DHT22;36732;47.980;11.652;2023-03-23T00:56:06;13.30;53.70
50758;DHT22;36732;47.980;11.652;2023-03-23T00:58:32;13.30;53.70
50758;DHT22;36732;47.980;11.652;2023-03-23T01:00:58;13.30;53.60
50758;DHT22;36732;47.980;11.652;2023-03-23T01:03:24;13.30;53.60
50758;DHT22;36732;47.980;11.652;2023-03-23T01:05:51;13.30;53.60
50758;DHT22;36732;47.980;11.652;2023-03-23T01:08:18;13.20;53.60
50758;DHT22;36732;47.980;11.652;2023-03-23T01:10:45;13.20;53.60
50758;DHT22;36732;47.980;11.652;2023-03-23T01:13:12;13.20;53.70
50758;DHT22;36732;47.980;11.652;2023-03-23T01:15:38;13.20;53.70
50758;DHT22;36732;47.980;11.652;2023-03-23T01:18:04;13.20;53.80
50758;DHT22;36732;47.980;11.652;2023-03-23T01:20:30;13.20;53.80
50758;DHT22;36732;47.980;11.652;2023-03-23T01:23:00;13.20;53.70
50758;DHT22;36732;47.980;11.652;2023-03-23T01:25:31;13.20;53.80
50758;DHT22;36732;47.980;11.652;2023-03-23T01:27:57;13.20;53.80
50758;DHT22;36732;47.980;11.652;2023-03-23T01:30:24;13.20;53.80
50758;DHT22;36732;47.980;11.652;2023-03-23T01:32:50;13.20;53.90
50758;DHT22;36732;47.980;11.652;2023-03-23T01:35:16;13.20;53.80
50758;DHT22;36732;47.980;11.652;2023-03-23T01:37:42;13.20;53.90
50758;DHT22;36732;47.980;11.652;2023-03-23T01:40:10;13.20;53.90
50758;DHT22;36732;47.980;11.652;2023-03-23T01:42:37;13.20;53.90
50758;DHT22;36732;47.980;11.652;2023-03-23T01:50:26;13.20;54.10
50758;DHT22;36732;47.980;11.652;2023-03-23T01:52:55;13.20;54.20
50758;DHT22;36732;47.980;11.652;2023-03-23T01:55:22;13.20;54.00
50758;DHT22;36732;47.980;11.652;2023-03-23T01:57:50;13.20;54.00
50758;DHT22;36732;47.980;11.652;2023-03-23T02:00:17;13.20;54.00
50758;DHT22;36732;47.980;11.652;2023-03-23T02:02:44;13.20;54.10
50758;DHT22;36732;47.980;11.652;2023-03-23T02:05:16;13.10;54.00
50758;DHT22;36732;47.980;11.652;2023-03-23T02:07:47;13.20;54.20
50758;DHT22;36732;47.980;11.652;2023-03-23T02:10:14;13.10;54.80
50758;DHT22;36732;47.980;11.652;2023-03-23T02:12:40;13.20;54.20
50758;DHT22;36732;47.980;11.652;2023-03-23T02:15:06;13.10;54.20
50758;DHT22;36732;47.980;11.652;2023-03-23T02:22:52;13.10;54.20
50758;DHT22;36732;47.980;11.652;2023-03-23T02:25:52;13.10;54.30
50758;DHT22;36732;47.980;11.652;2023-03-23T02:36:49;13.10;54.10
50758;DHT22;36732;47.980;11.652;2023-03-23T02:39:25;13.10;54.10
50758;DHT22;36732;47.980;11.652;2023-03-23T02:42:00;13.10;54.20
50758;DHT22;36732;47.980;11.652;2023-03-23T02:44:31;13.10;54.20
50758;DHT22;36732;47.980;11.652;2023-03-23T02:47:00;13.10;54.20
50758;DHT22;36732;47.980;11.652;2023-03-23T02:49:29;13.10;54.30
50758;DHT22;36732;47.980;11.652;2023-03-23T02:51:59;13.00;54.30
50758;DHT22;36732;47.980;11.652;2023-03-23T02:54:28;13.00;55.00
50758;DHT22;36732;47.980;11.652;2023-03-23T02:56:55;13.00;54.40
50758;DHT22;36732;47.980;11.652;2023-03-23T02:59:22;13.00;54.40
50758;DHT22;36732;47.980;11.652;2023-03-23T03:02:00;13.00;54.50
50758;DHT22;36732;47.980;11.652;2023-03-23T03:04:28;13.00;54.60
50758;DHT22;36732;47.980;11.652;2023-03-23T03:09:59;13.00;54.70
50758;DHT22;36732;47.980;11.652;2023-03-23T03:15:23;13.00;54.70
50758;DHT22;36732;47.980;11.652;2023-03-23T03:18:01;13.00;54.60
50758;DHT22;36732;47.980;11.652;2023-03-23T03:20:32;13.00;54.70
50758;DHT22;36732;47.980;11.652;2023-03-23T03:23:02;13.00;54.70
50758;DHT22;36732;47.980;11.652;2023-03-23T03:25:28;12.90;54.60
50758;DHT22;36732;47.980;11.652;2023-03-23T03:27:55;12.90;54.70
50758;DHT22;36732;47.980;11.652;2023-03-23T03:30:26;12.90;54.70
50758;DHT22;36732;47.980;11.652;2023-03-23T03:32:54;12.90;54.80
50758;DHT22;36732;47.980;11.652;2023-03-23T03:35:23;12.90;54.80
50758;DHT22;36732;47.980;11.652;2023-03-23T03:37:49;12.90;54.90
50758;DHT22;36732;47.980;11.652;2023-03-23T03:40:18;12.90;54.90
50758;DHT22;36732;47.980;11.652;2023-03-23T03:42:46;12.90;54.90
50758;DHT22;36732;47.980;11.652;2023-03-23T03:45:15;12.90;54.90
50758;DHT22;36732;47.980;11.652;2023-03-23T03:47:42;12.80;55.10
50758;DHT22;36732;47.980;11.652;2023-03-23T03:50:08;12.80;54.90
50758;DHT22;36732;47.980;11.652;2023-03-23T03:52:35;12.80;54.90
50758;DHT22;36732;47.980;11.652;2023-03-23T03:55:01;12.80;54.90
50758;DHT22;36732;47.980;11.652;2023-03-23T03:57:27;12.80;54.90
50758;DHT22;36732;47.980;11.652;2023-03-23T03:59:53;12.80;54.80
50758;DHT22;36732;47.980;11.652;2023-03-23T04:02:19;12.80;54.90
50758;DHT22;36732;47.980;11.652;2023-03-23T04:04:49;12.80;54.90
50758;DHT22;36732;47.980;11.652;2023-03-23T04:07:17;12.80;54.70
50758;DHT22;36732;47.980;11.652;2023-03-23T04:09:46;12.80;54.60
50758;DHT22;36732;47.980;11.652;2023-03-23T04:12:14;12.70;54.70
50758;DHT22;36732;47.980;11.652;2023-03-23T04:14:40;12.70;54.70
50758;DHT22;36732;47.980;11.652;2023-03-23T04:17:06;12.70;54.80
50758;DHT22;36732;47.980;11.652;2023-03-23T04:19:35;12.70;54.80
50758;DHT22;36732;47.980;11.652;2023-03-23T04:22:03;12.70;54.90
50758;DHT22;36732;47.980;11.652;2023-03-23T04:24:30;12.70;54.80
50758;DHT22;36732;47.980;11.652;2023-03-23T04:26:59;12.70;54.80
50758;DHT22;36732;47.980;11.652;2023-03-23T04:29:25;12.70;54.90
50758;DHT22;36732;47.980;11.652;2023-03-23T04:31:52;12.70;55.00
50758;DHT22;36732;47.980;11.652;2023-03-23T04:34:18;12.70;55.10
50758;DHT22;36732;47.980;11.652;2023-03-23T04:36:44;12.70;55.10
50758;DHT22;36732;47.980;11.652;2023-03-23T04:39:12;12.60;55.10
50758;DHT22;36732;47.980;11.652;2023-03-23T04:41:39;12.60;55.20
50758;DHT22;36732;47.980;11.652;2023-03-23T04:44:06;12.60;55.10
50758;DHT22;36732;47.980;11.652;2023-03-23T04:46:32;12.60;55.10
50758;DHT22;36732;47.980;11.652;2023-03-23T04:48:59;12.60;55.10
50758;DHT22;36732;47.980;11.652;2023-03-23T04:51:26;12.60;55.20
50758;DHT22;36732;47.980;11.652;2023-03-23T04:53:53;12.60;55.20
50758;DHT22;36732;47.980;11.652;2023-03-23T04:56:20;12.60;55.20
50758;DHT22;36732;47.980;11.652;2023-03-23T04:58:46;12.60;55.20
50758;DHT22;36732;47.980;11.652;2023-03-23T05:01:12;12.60;55.30
50758;DHT22;36732;47.980;11.652;2023-03-23T05:03:44;12.60;55.30
50758;DHT22;36732;47.980;11.652;2023-03-23T05:06:10;12.60;55.40
50758;DHT22;36732;47.980;11.652;2023-03-23T05:08:36;12.50;55.40
50758;DHT22;36732;47.980;11.652;2023-03-23T05:11:05;12.60;55.40
50758;DHT22;36732;47.980;11.652;2023-03-23T05:13:32;12.60;55.50
50758;DHT22;36732;47.980;11.652;2023-03-23T05:16:02;12.60;55.50
50758;DHT22;36732;47.980;11.652;2023-03-23T05:18:29;12.50;55.40
50758;DHT22;36732;47.980;11.652;2023-03-23T05:20:54;12.50;55.40
50758;DHT22;36732;47.980;11.652;2023-03-23T05:23:20;12.50;55.50
50758;DHT22;36732;47.980;11.652;2023-03-23T05:25:53;12.50;55.50
50758;DHT22;36732;47.980;11.652;2023-03-23T05:28:20;12.50;55.70
50758;DHT22;36732;47.980;11.652;2023-03-23T05:30:47;12.50;55.60
50758;DHT22;36732;47.980;11.652;2023-03-23T05:33:13;12.50;55.70
50758;DHT22;36732;47.980;11.652;2023-03-23T05:35:39;12.50;55.80
50758;DHT22;36732;47.980;11.652;2023-03-23T05:38:05;12.60;55.80
50758;DHT22;36732;47.980;11.652;2023-03-23T05:40:30;12.50;55.80
50758;DHT22;36732;47.980;11.652;2023-03-23T05:42:56;12.50;55.90
50758;DHT22;36732;47.980;11.652;2023-03-23T05:45:24;12.50;56.00
50758;DHT22;36732;47.980;11.652;2023-03-23T05:47:51;12.50;56.10
50758;DHT22;36732;47.980;11.652;2023-03-23T05:50:18;12.50;56.00
50758;DHT22;36732;47.980;11.652;2023-03-23T05:52:44;12.50;55.90
50758;DHT22;36732;47.980;11.652;2023-03-23T05:55:10;12.50;56.20
50758;DHT22;36732;47.980;11.652;2023-03-23T05:57:36;12.50;56.10
50758;DHT22;36732;47.980;11.652;2023-03-23T06:00:04;12.50;56.30
50758;DHT22;36732;47.980;11.652;2023-03-23T06:02:44;12.50;56.30
50758;DHT22;36732;47.980;11.652;2023-03-23T06:05:11;12.50;56.30
50758;DHT22;36732;47.980;11.652;2023-03-23T06:07:36;12.50;56.50
50758;DHT22;36732;47.980;11.652;2023-03-23T06:10:06;12.50;56.40
50758;DHT22;36732;47.980;11.652;2023-03-23T06:12:33;12.50;56.40
50758;DHT22;36732;47.980;11.652;2023-03-23T06:14:59;12.50;56.40
50758;DHT22;36732;47.980;11.652;2023-03-23T06:17:25;12.50;56.50
50758;DHT22;36732;47.980;11.652;2023-03-23T06:19:50;12.50;56.60
50758;DHT22;36732;47.980;11.652;2023-03-23T06:22:17;12.50;56.70
50758;DHT22;36732;47.980;11.652;2023-03-23T06:24:43;12.50;56.80
50758;DHT22;36732;47.980;11.652;2023-03-23T06:27:09;12.50;56.90
50758;DHT22;36732;47.980;11.652;2023-03-23T06:29:36;12.50;56.90
50758;DHT22;36732;47.980;11.652;2023-03-23T06:32:03;12.50;57.00
50758;DHT22;36732;47.980;11.652;2023-03-23T06:34:31;12.50;57.00
50758;DHT22;36732;47.980;11.652;2023-03-23T06:36:58;12.50;57.00
50758;DHT22;36732;47.980;11.652;2023-03-23T06:39:24;12.60;57.10
50758;DHT22;36732;47.980;11.652;2023-03-23T06:41:50;12.60;57.00
50758;DHT22;36732;47.980;11.652;2023-03-23T06:44:16;12.60;57.10
50758;DHT22;36732;47.980;11.652;2023-03-23T06:46:41;12.60;57.10
50758;DHT22;36732;47.980;11.652;2023-03-23T06:49:08;12.60;57.20
50758;DHT22;36732;47.980;11.652;2023-03-23T06:51:34;12.70;57.30
50758;DHT22;36732;47.980;11.652;2023-03-23T06:54:00;12.70;57.30
50758;DHT22;36732;47.980;11.652;2023-03-23T06:56:26;12.70;57.30
50758;DHT22;36732;47.980;11.652;2023-03-23T06:58:52;12.70;57.30
50758;DHT22;36732;47.980;11.652;2023-03-23T07:01:18;12.70;57.20
50758;DHT22;36732;47.980;11.652;2023-03-23T07:03:44;12.70;57.20
50758;DHT22;36732;47.980;11.652;2023-03-23T07:06:11;12.70;57.10
50758;DHT22;36732;47.980;11.652;2023-03-23T07:08:37;12.70;57.10
50758;DHT22;36732;47.980;11.652;2023-03-23T07:11:03;12.80;57.80
50758;DHT22;36732;47.980;11.652;2023-03-23T07:13:30;12.80;57.10
50758;DHT22;36732;47.980;11.652;2023-03-23T07:15:56;12.80;57.00
50758;DHT22;36732;47.980;11.652;2023-03-23T07:18:23;12.80;56.80
50758;DHT22;36732;47.980;11.652;2023-03-23T07:20:50;12.80;56.80
50758;DHT22;36732;47.980;11.652;2023-03-23T07:23:17;12.80;56.80
50758;DHT22;36732;47.980;11.652;2023-03-23T07:25:44;12.80;56.80
50758;DHT22;36732;47.980;11.652;2023-03-23T07:28:11;12.80;56.70
50758;DHT22;36732;47.980;11.652;2023-03-23T07:30:37;12.80;56.70
50758;DHT22;36732;47.980;11.652;2023-03-23T07:33:05;12.80;56.70
50758;DHT22;36732;47.980;11.652;2023-03-23T07:35:31;12.80;56.70
50758;DHT22;36732;47.980;11.652;2023-03-23T07:37:58;12.90;56.80
50758;DHT22;36732;47.980;11.652;2023-03-23T07:40:25;12.90;56.70
50758;DHT22;36732;47.980;11.652;2023-03-23T07:42:54;12.90;56.60
50758;DHT22;36732;47.980;11.652;2023-03-23T07:45:21;12.90;56.70
50758;DHT22;36732;47.980;11.652;2023-03-23T07:47:47;12.90;56.70
50758;DHT22;36732;47.980;11.652;2023-03-23T07:50:13;12.90;56.90
50758;DHT22;36732;47.980;11.652;2023-03-23T07:52:40;13.00;56.90
50758;DHT22;36732;47.980;11.652;2023-03-23T07:55:08;13.00;57.00
50758;DHT22;36732;47.980;11.652;2023-03-23T07:57:44;13.00;56.90
50758;DHT22;36732;47.980;11.652;2023-03-23T08:00:11;13.00;56.90
50758;DHT22;36732;47.980;11.652;2023-03-23T08:02:39;13.00;57.10
50758;DHT22;36732;47.980;11.652;2023-03-23T08:05:05;13.10;57.20
50758;DHT22;36732;47.980;11.652;2023-03-23T08:07:31;13.10;57.20
50758;DHT22;36732;47.980;11.652;2023-03-23T08:09:57;13.10;57.20
50758;DHT22;36732;47.980;11.652;2023-03-23T08:12:23;13.10;57.30
50758;DHT22;36732;47.980;11.652;2023-03-23T08:14:49;13.10;57.40
50758;DHT22;36732;47.980;11.652;2023-03-23T08:17:14;13.10;57.60
50758;DHT22;36732;47.980;11.652;2023-03-23T08:19:40;13.20;57.70
50758;DHT22;36732;47.980;11.652;2023-03-23T08:22:08;13.20;57.60
50758;DHT22;36732;47.980;11.652;2023-03-23T08:24:34;13.20;57.80
50758;DHT22;36732;47.980;11.652;2023-03-23T08:27:00;13.30;57.90
50758;DHT22;36732;47.980;11.652;2023-03-23T08:29:26;13.30;57.90
50758;DHT22;36732;47.980;11.652;2023-03-23T08:31:52;13.30;57.90
50758;DHT22;36732;47.980;11.652;2023-03-23T08:34:19;13.40;58.00
50758;DHT22;36732;47.980;11.652;2023-03-23T08:36:45;13.40;58.00
50758;DHT22;36732;47.980;11.652;2023-03-23T08:39:12;13.40;58.70
50758;DHT22;36732;47.980;11.652;2023-03-23T08:41:40;13.40;58.10
50758;DHT22;36732;47.980;11.652;2023-03-23T08:44:06;13.40;58.10
50758;DHT22;36732;47.980;11.652;2023-03-23T08:46:32;13.50;58.20
50758;DHT22;36732;47.980;11.652;2023-03-23T08:48:58;13.50;58.10
50758;DHT22;36732;47.980;11.652;2023-03-23T08:51:24;13.50;58.10
50758;DHT22;36732;47.980;11.652;2023-03-23T08:53:50;13.50;58.10
50758;DHT22;36732;47.980;11.652;2023-03-23T08:56:16;13.50;58.20
50758;DHT22;36732;47.980;11.652;2023-03-23T08:58:42;13.60;58.30
50758;DHT22;36732;47.980;11.652;2023-03-23T09:01:08;13.60;58.30
50758;DHT22;36732;47.980;11.652;2023-03-23T09:03:35;13.60;58.30
50758;DHT22;36732;47.980;11.652;2023-03-23T09:06:04;13.60;58.40
50758;DHT22;36732;47.980;11.652;2023-03-23T09:08:31;13.60;58.40
50758;DHT22;36732;47.980;11.652;2023-03-23T09:11:07;13.70;58.30
50758;DHT22;36732;47.980;11.652;2023-03-23T09:13:35;13.60;58.20
50758;DHT22;36732;47.980;11.652;2023-03-23T09:16:02;13.70;58.30
50758;DHT22;36732;47.980;11.652;2023-03-23T09:18:29;13.70;58.20
50758;DHT22;36732;47.980;11.652;2023-03-23T09:20:58;13.70;58.20
50758;DHT22;36732;47.980;11.652;2023-03-23T09:23:24;13.80;58.20
50758;DHT22;36732;47.980;11.652;2023-03-23T09:25:51;13.80;58.20
50758;DHT22;36732;47.980;11.652;2023-03-23T09:28:17;13.80;58.20
50758;DHT22;36732;47.980;11.652;2023-03-23T09:30:43;13.80;58.20
50758;DHT22;36732;47.980;11.652;2023-03-23T09:33:11;13.80;58.10
50758;DHT22;36732;47.980;11.652;2023-03-23T09:35:38;13.80;58.10
50758;DHT22;36732;47.980;11.652;2023-03-23T09:38:04;13.90;58.30
50758;DHT22;36732;47.980;11.652;2023-03-23T09:46:12;13.90;58.30
50758;DHT22;36732;47.980;11.652;2023-03-23T09:54:12;14.00;58.50
50758;DHT22;36732;47.980;11.652;2023-03-23T09:56:44;14.00;58.70
50758;DHT22;36732;47.980;11.652;2023-03-23T10:02:15;14.00;58.90
50758;DHT22;36732;47.980;11.652;2023-03-23T10:04:47;14.10;59.30
50758;DHT22;36732;47.980;11.652;2023-03-23T10:07:23;14.10;59.40
50758;DHT22;36732;47.980;11.652;2023-03-23T10:10:01;14.10;59.60
50758;DHT22;36732;47.980;11.652;2023-03-23T10:12:42;14.10;59.60
50758;DHT22;36732;47.980;11.652;2023-03-23T10:15:20;14.20;59.50
50758;DHT22;36732;47.980;11.652;2023-03-23T10:18:17;14.20;60.00
50758;DHT22;36732;47.980;11.652;2023-03-23T10:21:00;14.20;59.10
50758;DHT22;36732;47.980;11.652;2023-03-23T10:26:31;14.30;58.80
50758;DHT22;36732;47.980;11.652;2023-03-23T10:31:45;14.30;58.60
50758;DHT22;36732;47.980;11.652;2023-03-23T10:34:25;14.40;58.60
50758;DHT22;36732;47.980;11.652;2023-03-23T10:37:07;14.40;58.40
50758;DHT22;36732;47.980;11.652;2023-03-23T10:39:51;14.40;58.30
50758;DHT22;36732;47.980;11.652;2023-03-23T10:42:28;14.50;58.20
50758;DHT22;36732;47.980;11.652;2023-03-23T10:44:58;14.50;58.20
50758;DHT22;36732;47.980;11.652;2023-03-23T10:47:25;14.50;58.20
50758;DHT22;36732;47.980;11.652;2023-03-23T10:49:55;14.50;58.30
50758;DHT22;36732;47.980;11.652;2023-03-23T10:52:30;14.50;58.60
50758;DHT22;36732;47.980;11.652;2023-03-23T10:55:16;14.60;58.70
50758;DHT22;36732;47.980;11.652;2023-03-23T10:58:02;14.60;58.70
50758;DHT22;36732;47.980;11.652;2023-03-23T11:00:31;14.60;59.00
50758;DHT22;36732;47.980;11.652;2023-03-23T11:03:04;14.60;59.00
50758;DHT22;36732;47.980;11.652;2023-03-23T11:05:43;14.60;58.90
50758;DHT22;36732;47.980;11.652;2023-03-23T11:08:13;14.60;58.90
50758;DHT22;36732;47.980;11.652;2023-03-23T11:10:55;14.60;58.90
50758;DHT22;36732;47.980;11.652;2023-03-23T11:13:33;14.70;59.00
50758;DHT22;36732;47.980;11.652;2023-03-23T11:16:00;14.70;58.80
50758;DHT22;36732;47.980;11.652;2023-03-23T11:18:40;14.70;59.00
50758;DHT22;36732;47.980;11.652;2023-03-23T11:21:12;14.70;59.00
50758;DHT22;36732;47.980;11.652;2023-03-23T11:23:58;14.70;58.90
50758;DHT22;36732;47.980;11.652;2023-03-23T11:26:30;14.70;58.80
50758;DHT22;36732;47.980;11.652;2023-03-23T11:29:12;14.70;58.60
50758;DHT22;36732;47.980;11.652;2023-03-23T11:31:42;14.80;58.50
50758;DHT22;36732;47.980;11.652;2023-03-23T11:34:22;14.80;58.50
50758;DHT22;36732;47.980;11.652;2023-03-23T11:40:02;14.80;58.20
50758;DHT22;36732;47.980;11.652;2023-03-23T11:42:49;14.80;58.20
50758;DHT22;36732;47.980;11.652;2023-03-23T11:45:31;14.80;58.20
50758;DHT22;36732;47.980;11.652;2023-03-23T11:48:19;14.80;58.30
50758;DHT22;36732;47.980;11.652;2023-03-23T11:53:55;14.90;58.60
50758;DHT22;36732;47.980;11.652;2023-03-23T11:56:33;14.90;58.50
50758;DHT22;36732;47.980;11.652;2023-03-23T11:59:01;14.90;58.30
50758;DHT22;36732;47.980;11.652;2023-03-23T12:04:28;15.00;58.10
50758;DHT22;36732;47.980;11.652;2023-03-23T12:10:52;15.00;57.80
50758;DHT22;36732;47.980;11.652;2023-03-23T12:20:00;15.10;57.20
50758;DHT22;36732;47.980;11.652;2023-03-23T12:22:59;15.10;57.00
50758;DHT22;36732;47.980;11.652;2023-03-23T12:25:48;15.10;56.60
50758;DHT22;36732;47.980;11.652;2023-03-23T12:28:52;15.10;57.10
50758;DHT22;36732;47.980;11.652;2023-03-23T12:40:45;15.20;56.20
50758;DHT22;36732;47.980;11.652;2023-03-23T12:52:19;15.30;55.40
50758;DHT22;36732;47.980;11.652;2023-03-23T12:55:04;15.30;55.40
50758;DHT22;36732;47.980;11.652;2023-03-23T12:57:41;15.30;55.70
50758;DHT22;36732;47.980;11.652;2023-03-23T13:00:23;15.40;55.70
50758;DHT22;36732;47.980;11.652;2023-03-23T13:03:30;15.40;55.60
50758;DHT22;36732;47.980;11.652;2023-03-23T13:06:11;15.40;55.60
50758;DHT22;36732;47.980;11.652;2023-03-23T13:11:43;15.40;55.30
50758;DHT22;36732;47.980;11.652;2023-03-23T13:17:34;15.50;55.30
50758;DHT22;36732;47.980;11.652;2023-03-23T13:23:26;15.50;54.90
50758;DHT22;36732;47.980;11.652;2023-03-23T13:26:01;15.50;55.00
50758;DHT22;36732;47.980;11.652;2023-03-23T13:28:31;15.50;55.40
50758;DHT22;36732;47.980;11.652;2023-03-23T13:31:22;15.50;54.70
50758;DHT22;36732;47.980;11.652;2023-03-23T13:33:53;15.50;54.40
50758;DHT22;36732;47.980;11.652;2023-03-23T13:39:02;15.60;54.20
50758;DHT22;36732;47.980;11.652;2023-03-23T13:41:33;15.60;54.30
50758;DHT22;36732;47.980;11.652;2023-03-23T13:44:16;15.60;54.40
50758;DHT22;36732;47.980;11.652;2023-03-23T13:47:08;15.60;53.50
50758;DHT22;36732;47.980;11.652;2023-03-23T13:49:49;15.60;53.50
50758;DHT22;36732;47.980;11.652;2023-03-23T13:52:36;15.60;53.40
50758;DHT22;36732;47.980;11.652;2023-03-23T14:05:36;15.70;52.90
50758;DHT22;36732;47.980;11.652;2023-03-23T14:08:22;15.70;53.40
50758;DHT22;36732;47.980;11.652;2023-03-23T14:10:57;15.70;52.90
50758;DHT22;36732;47.980;11.652;2023-03-23T14:13:34;15.70;53.00
50758;DHT22;36732;47.980;11.652;2023-03-23T14:16:25;15.70;52.80
50758;DHT22;36732;47.980;11.652;2023-03-23T14:19:01;15.70;52.30
50758;DHT22;36732;47.980;11.652;2023-03-23T14:21:37;15.70;53.00
50758;DHT22;36732;47.980;11.652;2023-03-23T14:24:32;15.80;52.90
50758;DHT22;36732;47.980;11.652;2023-03-23T14:27:16;15.80;52.30
50758;DHT22;36732;47.980;11.652;2023-03-23T14:29:44;15.80;52.50
50758;DHT22;36732;47.980;11.652;2023-03-23T14:32:15;15.80;53.10
50758;DHT22;36732;47.980;11.652;2023-03-23T14:34:43;15.80;52.60
50758;DHT22;36732;47.980;11.652;2023-03-23T14:37:14;15.80;52.90
50758;DHT22;36732;47.980;11.652;2023-03-23T14:39:44;15.80;52.90
50758;DHT22;36732;47.980;11.652;2023-03-23T14:42:16;15.80;52.80
50758;DHT22;36732;47.980;11.652;2023-03-23T14:44:48;15.80;52.90
50758;DHT22;36732;47.980;11.652;2023-03-23T14:49:59;15.90;53.20
50758;DHT22;36732;47.980;11.652;2023-03-23T14:52:28;15.90;53.10
50758;DHT22;36732;47.980;11.652;2023-03-23T14:54:55;15.90;53.20
50758;DHT22;36732;47.980;11.652;2023-03-23T14:59:50;15.90;53.00
50758;DHT22;36732;47.980;11.652;2023-03-23T15:02:24;15.90;53.10
50758;DHT22;36732;47.980;11.652;2023-03-23T15:05:01;15.90;52.30
50758;DHT22;36732;47.980;11.652;2023-03-23T15:07:37;15.90;52.60
50758;DHT22;36732;47.980;11.652;2023-03-23T15:10:08;15.90;52.80
50758;DHT22;36732;47.980;11.652;2023-03-23T15:12:38;15.90;52.60
50758;DHT22;36732;47.980;11.652;2023-03-23T15:15:06;15.90;52.80
50758;DHT22;36732;47.980;11.652;2023-03-23T15:17:50;15.90;52.40
50758;DHT22;36732;47.980;11.652;2023-03-23T15:20:26;15.90;52.60
50758;DHT22;36732;47.980;11.652;2023-03-23T15:22:54;15.90;52.50
50758;DHT22;36732;47.980;11.652;2023-03-23T15:30:32;15.90;52.80
50758;DHT22;36732;47.980;11.652;2023-03-23T15:33:03;15.90;52.60
50758;DHT22;36732;47.980;11.652;2023-03-23T15:35:50;15.90;52.50
50758;DHT22;36732;47.980;11.652;2023-03-23T15:38:33;15.90;52.20
50758;DHT22;36732;47.980;11.652;2023-03-23T15:41:06;15.90;52.50
50758;DHT22;36732;47.980;11.652;2023-03-23T15:43:53;15.90;52.60
50758;DHT22;36732;47.980;11.652;2023-03-23T15:46:24;15.90;52.70
50758;DHT22;36732;47.980;11.652;2023-03-23T15:51:26;15.90;52.90
50758;DHT22;36732;47.980;11.652;2023-03-23T15:53:55;15.90;53.00
50758;DHT22;36732;47.980;11.652;2023-03-23T15:56:22;15.90;53.00
50758;DHT22;36732;47.980;11.652;2023-03-23T15:58:49;15.90;53.10
50758;DHT22;36732;47.980;11.652;2023-03-23T16:01:17;15.90;53.20
50758;DHT22;36732;47.980;11.652;2023-03-23T16:03:55;15.90;53.20
50758;DHT22;36732;47.980;11.652;2023-03-23T16:06:25;15.80;53.20
50758;DHT22;36732;47.980;11.652;2023-03-23T16:08:53;15.80;53.20
50758;DHT22;36732;47.980;11.652;2023-03-23T16:11:19;15.80;53.30
50758;DHT22;36732;47.980;11.652;2023-03-23T16:13:45;15.80;53.40
50758;DHT22;36732;47.980;11.652;2023-03-23T16:16:22;15.80;53.50
50758;DHT22;36732;47.980;11.652;2023-03-23T16:18:53;15.80;53.40
50758;DHT22;36732;47.980;11.652;2023-03-23T16:21:19;15.80;53.50
50758;DHT22;36732;47.980;11.652;2023-03-23T16:23:45;15.80;54.20
50758;DHT22;36732;47.980;11.652;2023-03-23T16:26:12;15.80;53.70
50758;DHT22;36732;47.980;11.652;2023-03-23T16:28:39;15.80;53.90
50758;DHT22;36732;47.980;11.652;2023-03-23T16:31:05;15.80;54.50
50758;DHT22;36732;47.980;11.652;2023-03-23T16:33:31;15.80;54.70
50758;DHT22;36732;47.980;11.652;2023-03-23T16:35:57;15.70;55.00
50758;DHT22;36732;47.980;11.652;2023-03-23T16:38:23;15.70;55.40
50758;DHT22;36732;47.980;11.652;2023-03-23T16:40:48;15.70;55.40
50758;DHT22;36732;47.980;11.652;2023-03-23T16:43:14;15.70;55.60
50758;DHT22;36732;47.980;11.652;2023-03-23T16:45:42;15.70;55.50
50758;DHT22;36732;47.980;11.652;2023-03-23T16:48:10;15.70;55.80
50758;DHT22;36732;47.980;11.652;2023-03-23T16:50:37;15.70;55.90
50758;DHT22;36732;47.980;11.652;2023-03-23T16:53:04;15.70;56.00
50758;DHT22;36732;47.980;11.652;2023-03-23T16:55:31;15.70;56.20
50758;DHT22;36732;47.980;11.652;2023-03-23T16:57:57;15.70;56.30
50758;DHT22;36732;47.980;11.652;2023-03-23T17:00:23;15.70;56.50
50758;DHT22;36732;47.980;11.652;2023-03-23T17:02:52;15.70;57.10
50758;DHT22;36732;47.980;11.652;2023-03-23T17:05:25;15.70;56.50
50758;DHT22;36732;47.980;11.652;2023-03-23T17:07:52;15.60;56.40
50758;DHT22;36732;47.980;11.652;2023-03-23T17:10:21;15.70;56.70
50758;DHT22;36732;47.980;11.652;2023-03-23T17:12:47;15.60;56.70
50758;DHT22;36732;47.980;11.652;2023-03-23T17:15:13;15.70;56.90
50758;DHT22;36732;47.980;11.652;2023-03-23T17:17:39;15.60;56.80
50758;DHT22;36732;47.980;11.652;2023-03-23T17:20:06;15.60;56.90
50758;DHT22;36732;47.980;11.652;2023-03-23T17:22:34;15.60;57.00
50758;DHT22;36732;47.980;11.652;2023-03-23T17:25:01;15.60;57.00
50758;DHT22;36732;47.980;11.652;2023-03-23T17:27:28;15.60;57.20
50758;DHT22;36732;47.980;11.652;2023-03-23T17:29:54;15.60;57.20
50758;DHT22;36732;47.980;11.652;2023-03-23T17:32:20;15.60;57.20
50758;DHT22;36732;47.980;11.652;2023-03-23T17:34:48;15.60;57.20